sensor_id;sensor_type;location;lat;lon;timestamp;P1;durP1;ratioP1;P2;durP2;ratioP2
76608;SDS011;65501;53.936;27.540;2022-12-07T00:01:44;13.27;;;7.88;;
76608;SDS011;65501;53.936;27.540;2022-12-07T00:04:11;12.23;;;7.63;;
76608;SDS011;65501;53.936;27.540;2022-12-07T00:06:39;11.95;;;9.00;;
76608;SDS011;65501;53.936;27.540;2022-12-07T00:09:08;13.32;;;8.52;;
76608;SDS011;65501;53.936;27.540;2022-12-07T00:11:35;12.27;;;7.53;;
76608;SDS011;65501;53.936;27.540;2022-12-07T00:14:02;15.55;;;9.32;;
76608;SDS011;65501;53.936;27.540;2022-12-07T00:16:30;13.75;;;7.45;;
76608;SDS011;65501;53.936;27.540;2022-12-07T00:18:57;12.98;;;7.85;;
76608;SDS011;65501;53.936;27.540;2022-12-07T00:21:26;12.00;;;8.43;;
76608;SDS011;65501;53.936;27.540;2022-12-07T00:23:53;12.05;;;8.23;;
76608;SDS011;65501;53.936;27.540;2022-12-07T00:26:23;13.70;;;8.63;;
76608;SDS011;65501;53.936;27.540;2022-12-07T00:28:57;13.48;;;8.43;;
76608;SDS011;65501;53.936;27.540;2022-12-07T00:31:25;12.25;;;7.55;;
76608;SDS011;65501;53.936;27.540;2022-12-07T00:33:52;12.10;;;7.25;;
76608;SDS011;65501;53.936;27.540;2022-12-07T00:36:19;11.43;;;6.75;;
76608;SDS011;65501;53.936;27.540;2022-12-07T00:38:46;11.20;;;8.18;;
76608;SDS011;65501;53.936;27.540;2022-12-07T00:41:13;13.73;;;8.77;;
76608;SDS011;65501;53.936;27.540;2022-12-07T00:43:40;11.85;;;8.15;;
76608;SDS011;65501;53.936;27.540;2022-12-07T00:46:07;13.45;;;9.38;;
76608;SDS011;65501;53.936;27.540;2022-12-07T00:48:32;12.13;;;8.40;;
76608;SDS011;65501;53.936;27.540;2022-12-07T00:50:58;11.23;;;7.63;;
76608;SDS011;65501;53.936;27.540;2022-12-07T00:53:24;13.52;;;8.02;;
76608;SDS011;65501;53.936;27.540;2022-12-07T00:55:50;13.35;;;8.60;;
76608;SDS011;65501;53.936;27.540;2022-12-07T00:58:17;12.38;;;7.50;;
76608;SDS011;65501;53.936;27.540;2022-12-07T01:00:43;10.93;;;6.93;;
76608;SDS011;65501;53.936;27.540;2022-12-07T01:03:10;15.13;;;8.63;;
76608;SDS011;65501;53.936;27.540;2022-12-07T01:05:36;13.38;;;8.07;;
76608;SDS011;65501;53.936;27.540;2022-12-07T01:08:02;11.43;;;7.20;;
76608;SDS011;65501;53.936;27.540;2022-12-07T01:10:28;11.50;;;8.43;;
76608;SDS011;65501;53.936;27.540;2022-12-07T01:12:55;12.65;;;8.40;;
76608;SDS011;65501;53.936;27.540;2022-12-07T01:15:21;10.90;;;7.25;;
76608;SDS011;65501;53.936;27.540;2022-12-07T01:17:46;10.43;;;7.57;;
76608;SDS011;65501;53.936;27.540;2022-12-07T01:20:12;11.68;;;7.57;;
76608;SDS011;65501;53.936;27.540;2022-12-07T01:22:39;12.60;;;7.80;;
76608;SDS011;65501;53.936;27.540;2022-12-07T01:25:05;11.73;;;7.68;;
76608;SDS011;65501;53.936;27.540;2022-12-07T01:27:32;9.73;;;6.78;;
76608;SDS011;65501;53.936;27.540;2022-12-07T01:29:58;12.88;;;7.93;;
76608;SDS011;65501;53.936;27.540;2022-12-07T01:32:23;10.52;;;6.57;;
76608;SDS011;65501;53.936;27.540;2022-12-07T01:34:49;12.73;;;8.45;;
76608;SDS011;65501;53.936;27.540;2022-12-07T01:37:14;10.05;;;7.03;;
76608;SDS011;65501;53.936;27.540;2022-12-07T01:39:40;9.80;;;6.78;;
76608;SDS011;65501;53.936;27.540;2022-12-07T01:42:09;10.48;;;7.10;;
76608;SDS011;65501;53.936;27.540;2022-12-07T01:45:31;11.82;;;7.85;;
76608;SDS011;65501;53.936;27.540;2022-12-07T01:47:39;9.45;;;6.20;;
76608;SDS011;65501;53.936;27.540;2022-12-07T01:50:06;10.32;;;6.57;;
76608;SDS011;65501;53.936;27.540;2022-12-07T01:52:32;10.38;;;7.07;;
76608;SDS011;65501;53.936;27.540;2022-12-07T01:55:04;10.15;;;7.07;;
76608;SDS011;65501;53.936;27.540;2022-12-07T01:59:57;10.55;;;7.00;;
76608;SDS011;65501;53.936;27.540;2022-12-07T02:02:27;11.40;;;6.93;;
76608;SDS011;65501;53.936;27.540;2022-12-07T02:04:57;12.10;;;7.22;;
76608;SDS011;65501;53.936;27.540;2022-12-07T02:07:24;13.60;;;8.88;;
76608;SDS011;65501;53.936;27.540;2022-12-07T02:09:50;11.25;;;7.38;;
76608;SDS011;65501;53.936;27.540;2022-12-07T02:12:15;12.77;;;7.85;;
76608;SDS011;65501;53.936;27.540;2022-12-07T02:14:41;9.65;;;6.65;;
76608;SDS011;65501;53.936;27.540;2022-12-07T02:28:27;13.93;;;9.05;;
76608;SDS011;65501;53.936;27.540;2022-12-07T02:30:58;13.43;;;8.45;;
76608;SDS011;65501;53.936;27.540;2022-12-07T02:33:31;13.95;;;8.70;;
76608;SDS011;65501;53.936;27.540;2022-12-07T02:36:05;14.07;;;9.30;;
76608;SDS011;65501;53.936;27.540;2022-12-07T02:39:19;12.63;;;8.23;;
76608;SDS011;65501;53.936;27.540;2022-12-07T02:42:09;13.85;;;8.98;;
76608;SDS011;65501;53.936;27.540;2022-12-07T02:44:23;14.98;;;8.32;;
76608;SDS011;65501;53.936;27.540;2022-12-07T02:46:54;12.93;;;7.60;;
76608;SDS011;65501;53.936;27.540;2022-12-07T02:49:23;12.75;;;7.28;;
76608;SDS011;65501;53.936;27.540;2022-12-07T02:51:50;15.73;;;9.48;;
76608;SDS011;65501;53.936;27.540;2022-12-07T02:54:16;13.77;;;8.18;;
76608;SDS011;65501;53.936;27.540;2022-12-07T03:07:30;11.13;;;8.18;;
76608;SDS011;65501;53.936;27.540;2022-12-07T03:15:53;12.10;;;7.82;;
76608;SDS011;65501;53.936;27.540;2022-12-07T03:18:21;11.77;;;8.18;;
76608;SDS011;65501;53.936;27.540;2022-12-07T03:20:48;12.45;;;8.27;;
76608;SDS011;65501;53.936;27.540;2022-12-07T03:23:15;14.35;;;8.20;;
76608;SDS011;65501;53.936;27.540;2022-12-07T03:25:44;10.00;;;6.97;;
76608;SDS011;65501;53.936;27.540;2022-12-07T03:28:12;14.02;;;8.23;;
76608;SDS011;65501;53.936;27.540;2022-12-07T03:30:56;11.15;;;8.32;;
76608;SDS011;65501;53.936;27.540;2022-12-07T03:33:32;14.00;;;7.68;;
76608;SDS011;65501;53.936;27.540;2022-12-07T03:36:04;15.93;;;8.07;;
76608;SDS011;65501;53.936;27.540;2022-12-07T03:41:49;10.20;;;7.55;;
76608;SDS011;65501;53.936;27.540;2022-12-07T03:44:15;11.10;;;7.40;;
76608;SDS011;65501;53.936;27.540;2022-12-07T03:46:45;11.05;;;8.73;;
76608;SDS011;65501;53.936;27.540;2022-12-07T03:52:08;11.52;;;8.55;;
76608;SDS011;65501;53.936;27.540;2022-12-07T03:54:51;13.43;;;8.18;;
76608;SDS011;65501;53.936;27.540;2022-12-07T03:57:20;13.07;;;7.80;;
76608;SDS011;65501;53.936;27.540;2022-12-07T03:59:46;13.18;;;7.43;;
76608;SDS011;65501;53.936;27.540;2022-12-07T04:02:12;14.57;;;9.00;;
76608;SDS011;65501;53.936;27.540;2022-12-07T04:04:38;10.82;;;7.70;;
76608;SDS011;65501;53.936;27.540;2022-12-07T04:07:04;10.20;;;7.22;;
76608;SDS011;65501;53.936;27.540;2022-12-07T04:09:30;12.48;;;7.57;;
76608;SDS011;65501;53.936;27.540;2022-12-07T04:11:55;10.77;;;7.57;;
76608;SDS011;65501;53.936;27.540;2022-12-07T04:14:20;13.73;;;9.23;;
76608;SDS011;65501;53.936;27.540;2022-12-07T04:16:50;12.05;;;9.18;;
76608;SDS011;65501;53.936;27.540;2022-12-07T04:19:18;13.52;;;8.15;;
76608;SDS011;65501;53.936;27.540;2022-12-07T04:21:45;13.05;;;8.90;;
76608;SDS011;65501;53.936;27.540;2022-12-07T04:24:11;13.52;;;9.07;;
76608;SDS011;65501;53.936;27.540;2022-12-07T04:26:38;15.88;;;8.40;;
76608;SDS011;65501;53.936;27.540;2022-12-07T04:29:04;12.23;;;7.38;;
76608;SDS011;65501;53.936;27.540;2022-12-07T04:31:29;14.38;;;9.13;;
76608;SDS011;65501;53.936;27.540;2022-12-07T04:33:55;11.70;;;7.90;;
76608;SDS011;65501;53.936;27.540;2022-12-07T04:36:20;13.57;;;7.68;;
76608;SDS011;65501;53.936;27.540;2022-12-07T04:38:46;14.27;;;8.55;;
76608;SDS011;65501;53.936;27.540;2022-12-07T04:41:12;12.52;;;7.50;;
76608;SDS011;65501;53.936;27.540;2022-12-07T04:43:37;12.75;;;8.32;;
76608;SDS011;65501;53.936;27.540;2022-12-07T04:46:03;10.80;;;8.02;;
76608;SDS011;65501;53.936;27.540;2022-12-07T04:48:29;10.52;;;7.40;;
76608;SDS011;65501;53.936;27.540;2022-12-07T04:50:54;10.40;;;7.25;;
76608;SDS011;65501;53.936;27.540;2022-12-07T04:53:20;11.70;;;7.45;;
76608;SDS011;65501;53.936;27.540;2022-12-07T04:55:45;9.57;;;7.07;;
76608;SDS011;65501;53.936;27.540;2022-12-07T04:58:11;12.40;;;7.65;;
76608;SDS011;65501;53.936;27.540;2022-12-07T05:00:37;10.00;;;7.43;;
76608;SDS011;65501;53.936;27.540;2022-12-07T05:03:03;11.63;;;6.90;;
76608;SDS011;65501;53.936;27.540;2022-12-07T05:05:29;11.60;;;7.38;;
76608;SDS011;65501;53.936;27.540;2022-12-07T05:07:54;10.18;;;6.70;;
76608;SDS011;65501;53.936;27.540;2022-12-07T05:10:19;9.82;;;7.03;;
76608;SDS011;65501;53.936;27.540;2022-12-07T05:12:45;12.70;;;7.55;;
76608;SDS011;65501;53.936;27.540;2022-12-07T05:15:11;10.88;;;7.50;;
76608;SDS011;65501;53.936;27.540;2022-12-07T05:17:37;11.55;;;7.43;;
76608;SDS011;65501;53.936;27.540;2022-12-07T05:20:03;11.38;;;7.40;;
76608;SDS011;65501;53.936;27.540;2022-12-07T05:22:29;13.25;;;7.35;;
76608;SDS011;65501;53.936;27.540;2022-12-07T05:24:55;11.63;;;7.13;;
76608;SDS011;65501;53.936;27.540;2022-12-07T05:27:20;10.43;;;7.45;;
76608;SDS011;65501;53.936;27.540;2022-12-07T05:29:46;10.95;;;7.25;;
76608;SDS011;65501;53.936;27.540;2022-12-07T05:32:11;12.05;;;7.63;;
76608;SDS011;65501;53.936;27.540;2022-12-07T05:34:37;10.90;;;7.57;;
76608;SDS011;65501;53.936;27.540;2022-12-07T05:37:03;10.05;;;6.85;;
76608;SDS011;65501;53.936;27.540;2022-12-07T05:39:28;11.38;;;7.43;;
76608;SDS011;65501;53.936;27.540;2022-12-07T05:41:54;10.70;;;7.32;;
76608;SDS011;65501;53.936;27.540;2022-12-07T05:44:41;11.98;;;7.07;;
76608;SDS011;65501;53.936;27.540;2022-12-07T05:47:08;10.02;;;6.85;;
76608;SDS011;65501;53.936;27.540;2022-12-07T05:49:34;11.05;;;6.57;;
76608;SDS011;65501;53.936;27.540;2022-12-07T05:51:59;10.35;;;7.32;;
76608;SDS011;65501;53.936;27.540;2022-12-07T05:54:25;10.13;;;7.25;;
76608;SDS011;65501;53.936;27.540;2022-12-07T05:56:50;11.13;;;7.07;;
76608;SDS011;65501;53.936;27.540;2022-12-07T05:59:16;10.38;;;6.72;;
76608;SDS011;65501;53.936;27.540;2022-12-07T06:01:54;11.55;;;6.65;;
76608;SDS011;65501;53.936;27.540;2022-12-07T06:04:20;10.40;;;7.03;;
76608;SDS011;65501;53.936;27.540;2022-12-07T06:06:47;8.90;;;6.50;;
76608;SDS011;65501;53.936;27.540;2022-12-07T06:09:12;10.25;;;7.28;;
76608;SDS011;65501;53.936;27.540;2022-12-07T06:11:39;10.00;;;7.00;;
76608;SDS011;65501;53.936;27.540;2022-12-07T06:14:23;12.55;;;8.25;;
76608;SDS011;65501;53.936;27.540;2022-12-07T06:16:49;11.63;;;7.25;;
76608;SDS011;65501;53.936;27.540;2022-12-07T06:19:14;10.90;;;7.47;;
76608;SDS011;65501;53.936;27.540;2022-12-07T06:21:40;11.77;;;7.18;;
76608;SDS011;65501;53.936;27.540;2022-12-07T06:24:06;14.32;;;7.50;;
76608;SDS011;65501;53.936;27.540;2022-12-07T06:26:31;11.85;;;7.72;;
76608;SDS011;65501;53.936;27.540;2022-12-07T06:28:57;11.00;;;8.15;;
76608;SDS011;65501;53.936;27.540;2022-12-07T06:31:22;12.38;;;7.85;;
76608;SDS011;65501;53.936;27.540;2022-12-07T06:33:48;12.25;;;6.93;;
76608;SDS011;65501;53.936;27.540;2022-12-07T06:36:13;13.05;;;7.80;;
76608;SDS011;65501;53.936;27.540;2022-12-07T06:38:39;11.35;;;7.15;;
76608;SDS011;65501;53.936;27.540;2022-12-07T06:41:04;14.68;;;8.77;;
76608;SDS011;65501;53.936;27.540;2022-12-07T06:43:30;11.05;;;6.78;;
76608;SDS011;65501;53.936;27.540;2022-12-07T06:45:56;13.93;;;8.27;;
76608;SDS011;65501;53.936;27.540;2022-12-07T06:48:21;13.52;;;8.27;;
76608;SDS011;65501;53.936;27.540;2022-12-07T06:50:47;10.15;;;7.63;;
76608;SDS011;65501;53.936;27.540;2022-12-07T06:53:12;11.20;;;7.57;;
76608;SDS011;65501;53.936;27.540;2022-12-07T06:55:38;11.15;;;7.25;;
76608;SDS011;65501;53.936;27.540;2022-12-07T06:58:04;12.82;;;8.10;;
76608;SDS011;65501;53.936;27.540;2022-12-07T07:00:29;15.48;;;8.32;;
76608;SDS011;65501;53.936;27.540;2022-12-07T07:02:55;13.48;;;8.02;;
76608;SDS011;65501;53.936;27.540;2022-12-07T07:05:20;13.32;;;8.82;;
76608;SDS011;65501;53.936;27.540;2022-12-07T07:07:49;12.32;;;7.85;;
76608;SDS011;65501;53.936;27.540;2022-12-07T07:10:14;11.95;;;7.75;;
76608;SDS011;65501;53.936;27.540;2022-12-07T07:12:40;13.48;;;8.98;;
76608;SDS011;65501;53.936;27.540;2022-12-07T07:15:05;13.32;;;8.25;;
76608;SDS011;65501;53.936;27.540;2022-12-07T07:17:31;13.60;;;8.63;;
76608;SDS011;65501;53.936;27.540;2022-12-07T07:19:57;15.73;;;9.75;;
76608;SDS011;65501;53.936;27.540;2022-12-07T07:22:22;13.35;;;8.68;;
76608;SDS011;65501;53.936;27.540;2022-12-07T07:24:48;11.80;;;8.00;;
76608;SDS011;65501;53.936;27.540;2022-12-07T07:27:13;14.10;;;8.02;;
76608;SDS011;65501;53.936;27.540;2022-12-07T07:29:39;14.60;;;8.82;;
76608;SDS011;65501;53.936;27.540;2022-12-07T07:32:04;13.43;;;9.35;;
76608;SDS011;65501;53.936;27.540;2022-12-07T07:34:30;11.88;;;7.20;;
76608;SDS011;65501;53.936;27.540;2022-12-07T07:36:55;11.60;;;8.20;;
76608;SDS011;65501;53.936;27.540;2022-12-07T07:39:21;12.18;;;8.50;;
76608;SDS011;65501;53.936;27.540;2022-12-07T07:41:46;16.77;;;9.95;;
76608;SDS011;65501;53.936;27.540;2022-12-07T07:44:12;13.55;;;8.02;;
76608;SDS011;65501;53.936;27.540;2022-12-07T07:46:37;12.65;;;7.55;;
76608;SDS011;65501;53.936;27.540;2022-12-07T07:49:03;12.90;;;8.68;;
76608;SDS011;65501;53.936;27.540;2022-12-07T07:51:28;12.23;;;8.30;;
76608;SDS011;65501;53.936;27.540;2022-12-07T07:53:54;13.23;;;9.07;;
76608;SDS011;65501;53.936;27.540;2022-12-07T07:56:19;15.38;;;9.35;;
76608;SDS011;65501;53.936;27.540;2022-12-07T07:58:45;16.60;;;8.20;;
76608;SDS011;65501;53.936;27.540;2022-12-07T08:01:10;13.02;;;8.52;;
76608;SDS011;65501;53.936;27.540;2022-12-07T08:03:36;14.68;;;8.63;;
76608;SDS011;65501;53.936;27.540;2022-12-07T08:06:04;14.48;;;8.15;;
76608;SDS011;65501;53.936;27.540;2022-12-07T08:08:30;13.80;;;8.82;;
76608;SDS011;65501;53.936;27.540;2022-12-07T08:10:55;13.82;;;8.95;;
76608;SDS011;65501;53.936;27.540;2022-12-07T08:13:21;14.60;;;7.95;;
76608;SDS011;65501;53.936;27.540;2022-12-07T08:15:47;10.30;;;7.70;;
76608;SDS011;65501;53.936;27.540;2022-12-07T08:18:13;10.52;;;6.90;;
76608;SDS011;65501;53.936;27.540;2022-12-07T08:20:39;12.88;;;7.88;;
76608;SDS011;65501;53.936;27.540;2022-12-07T08:23:06;11.23;;;7.78;;
76608;SDS011;65501;53.936;27.540;2022-12-07T08:25:32;11.45;;;8.32;;
76608;SDS011;65501;53.936;27.540;2022-12-07T08:27:58;10.98;;;7.50;;
76608;SDS011;65501;53.936;27.540;2022-12-07T08:30:25;10.18;;;7.15;;
76608;SDS011;65501;53.936;27.540;2022-12-07T08:32:51;10.23;;;7.15;;
76608;SDS011;65501;53.936;27.540;2022-12-07T08:35:16;10.43;;;6.93;;
76608;SDS011;65501;53.936;27.540;2022-12-07T08:37:42;11.93;;;7.90;;
76608;SDS011;65501;53.936;27.540;2022-12-07T08:40:08;9.85;;;7.53;;
76608;SDS011;65501;53.936;27.540;2022-12-07T08:42:34;10.32;;;6.82;;
76608;SDS011;65501;53.936;27.540;2022-12-07T08:47:35;12.30;;;7.32;;
76608;SDS011;65501;53.936;27.540;2022-12-07T08:50:03;11.00;;;7.88;;
76608;SDS011;65501;53.936;27.540;2022-12-07T08:52:30;10.55;;;7.75;;
76608;SDS011;65501;53.936;27.540;2022-12-07T08:54:56;11.68;;;7.68;;
76608;SDS011;65501;53.936;27.540;2022-12-07T08:57:21;10.65;;;6.88;;
76608;SDS011;65501;53.936;27.540;2022-12-07T08:59:47;12.18;;;7.78;;
76608;SDS011;65501;53.936;27.540;2022-12-07T09:02:12;11.32;;;6.78;;
76608;SDS011;65501;53.936;27.540;2022-12-07T09:04:38;11.55;;;6.50;;
76608;SDS011;65501;53.936;27.540;2022-12-07T09:07:03;10.82;;;7.35;;
76608;SDS011;65501;53.936;27.540;2022-12-07T09:09:29;11.75;;;6.72;;
76608;SDS011;65501;53.936;27.540;2022-12-07T09:11:55;11.05;;;7.03;;
76608;SDS011;65501;53.936;27.540;2022-12-07T09:14:20;11.70;;;7.90;;
76608;SDS011;65501;53.936;27.540;2022-12-07T09:16:46;9.73;;;6.28;;
76608;SDS011;65501;53.936;27.540;2022-12-07T09:19:11;10.82;;;5.72;;
76608;SDS011;65501;53.936;27.540;2022-12-07T09:21:37;10.10;;;7.10;;
76608;SDS011;65501;53.936;27.540;2022-12-07T09:24:03;10.70;;;7.03;;
76608;SDS011;65501;53.936;27.540;2022-12-07T09:26:28;9.98;;;6.53;;
76608;SDS011;65501;53.936;27.540;2022-12-07T09:28:54;10.15;;;6.95;;
76608;SDS011;65501;53.936;27.540;2022-12-07T09:31:19;9.60;;;7.20;;
76608;SDS011;65501;53.936;27.540;2022-12-07T09:33:45;13.13;;;7.32;;
76608;SDS011;65501;53.936;27.540;2022-12-07T09:36:10;9.57;;;6.28;;
76608;SDS011;65501;53.936;27.540;2022-12-07T09:38:36;10.55;;;6.32;;
76608;SDS011;65501;53.936;27.540;2022-12-07T09:41:05;11.10;;;6.60;;
76608;SDS011;65501;53.936;27.540;2022-12-07T09:43:32;11.68;;;7.20;;
76608;SDS011;65501;53.936;27.540;2022-12-07T09:46:00;11.95;;;6.78;;
76608;SDS011;65501;53.936;27.540;2022-12-07T09:48:29;9.88;;;6.35;;
76608;SDS011;65501;53.936;27.540;2022-12-07T09:50:57;15.63;;;8.05;;
76608;SDS011;65501;53.936;27.540;2022-12-07T09:53:28;10.40;;;6.60;;
76608;SDS011;65501;53.936;27.540;2022-12-07T09:56:01;11.05;;;5.82;;
76608;SDS011;65501;53.936;27.540;2022-12-07T09:58:27;10.30;;;6.07;;
76608;SDS011;65501;53.936;27.540;2022-12-07T10:00:58;11.23;;;7.05;;
76608;SDS011;65501;53.936;27.540;2022-12-07T10:03:26;13.20;;;7.55;;
76608;SDS011;65501;53.936;27.540;2022-12-07T10:05:53;11.40;;;6.35;;
76608;SDS011;65501;53.936;27.540;2022-12-07T10:08:19;11.10;;;6.88;;
76608;SDS011;65501;53.936;27.540;2022-12-07T10:10:46;11.10;;;6.82;;
76608;SDS011;65501;53.936;27.540;2022-12-07T10:13:18;9.52;;;7.53;;
76608;SDS011;65501;53.936;27.540;2022-12-07T10:15:57;11.57;;;7.38;;
76608;SDS011;65501;53.936;27.540;2022-12-07T10:21:14;9.80;;;6.78;;
76608;SDS011;65501;53.936;27.540;2022-12-07T10:28:56;11.02;;;6.80;;
76608;SDS011;65501;53.936;27.540;2022-12-07T10:31:24;12.55;;;6.72;;
76608;SDS011;65501;53.936;27.540;2022-12-07T10:36:21;9.57;;;7.05;;
76608;SDS011;65501;53.936;27.540;2022-12-07T10:38:48;10.77;;;7.53;;
76608;SDS011;65501;53.936;27.540;2022-12-07T10:41:17;8.73;;;6.55;;
76608;SDS011;65501;53.936;27.540;2022-12-07T10:43:47;11.10;;;6.97;;
76608;SDS011;65501;53.936;27.540;2022-12-07T10:54:25;11.07;;;6.50;;
76608;SDS011;65501;53.936;27.540;2022-12-07T11:10:57;10.15;;;5.80;;
76608;SDS011;65501;53.936;27.540;2022-12-07T11:13:38;11.18;;;7.05;;
76608;SDS011;65501;53.936;27.540;2022-12-07T11:18:54;10.73;;;6.65;;
76608;SDS011;65501;53.936;27.540;2022-12-07T11:24:12;9.75;;;6.80;;
76608;SDS011;65501;53.936;27.540;2022-12-07T11:29:37;13.20;;;7.85;;
76608;SDS011;65501;53.936;27.540;2022-12-07T11:35:24;11.98;;;6.93;;
76608;SDS011;65501;53.936;27.540;2022-12-07T11:37:55;10.93;;;6.78;;
76608;SDS011;65501;53.936;27.540;2022-12-07T11:40:29;11.75;;;6.65;;
76608;SDS011;65501;53.936;27.540;2022-12-07T11:43:11;12.02;;;6.78;;
76608;SDS011;65501;53.936;27.540;2022-12-07T11:45:42;12.77;;;6.43;;
76608;SDS011;65501;53.936;27.540;2022-12-07T11:53:33;11.88;;;7.07;;
76608;SDS011;65501;53.936;27.540;2022-12-07T12:03:44;14.15;;;7.93;;
76608;SDS011;65501;53.936;27.540;2022-12-07T12:09:26;10.23;;;7.05;;
76608;SDS011;65501;53.936;27.540;2022-12-07T12:11:56;10.40;;;6.15;;
76608;SDS011;65501;53.936;27.540;2022-12-07T12:23:17;9.30;;;6.43;;
76608;SDS011;65501;53.936;27.540;2022-12-07T12:25:54;10.70;;;6.57;;
76608;SDS011;65501;53.936;27.540;2022-12-07T12:28:49;9.43;;;7.00;;
76608;SDS011;65501;53.936;27.540;2022-12-07T12:33:53;10.88;;;7.18;;
76608;SDS011;65501;53.936;27.540;2022-12-07T12:46:53;12.55;;;6.57;;
76608;SDS011;65501;53.936;27.540;2022-12-07T12:55:01;10.88;;;7.18;;
76608;SDS011;65501;53.936;27.540;2022-12-07T12:57:37;9.07;;;5.82;;
76608;SDS011;65501;53.936;27.540;2022-12-07T13:08:01;9.35;;;6.90;;
76608;SDS011;65501;53.936;27.540;2022-12-07T13:15:37;10.25;;;7.30;;
76608;SDS011;65501;53.936;27.540;2022-12-07T13:24:07;13.23;;;7.78;;
76608;SDS011;65501;53.936;27.540;2022-12-07T13:26:20;13.13;;;7.53;;
76608;SDS011;65501;53.936;27.540;2022-12-07T13:28:52;10.52;;;6.65;;
76608;SDS011;65501;53.936;27.540;2022-12-07T13:34:02;10.68;;;7.50;;
76608;SDS011;65501;53.936;27.540;2022-12-07T13:36:29;11.35;;;7.30;;
76608;SDS011;65501;53.936;27.540;2022-12-07T13:41:41;9.52;;;6.07;;
76608;SDS011;65501;53.936;27.540;2022-12-07T13:44:11;13.13;;;6.72;;
76608;SDS011;65501;53.936;27.540;2022-12-07T13:49:33;11.20;;;5.97;;
76608;SDS011;65501;53.936;27.540;2022-12-07T13:54:49;9.25;;;6.57;;
76608;SDS011;65501;53.936;27.540;2022-12-07T13:57:17;10.82;;;6.20;;
76608;SDS011;65501;53.936;27.540;2022-12-07T13:59:43;8.70;;;6.30;;
76608;SDS011;65501;53.936;27.540;2022-12-07T14:02:22;10.90;;;6.47;;
76608;SDS011;65501;53.936;27.540;2022-12-07T14:04:51;12.07;;;7.60;;
76608;SDS011;65501;53.936;27.540;2022-12-07T14:07:24;9.82;;;6.10;;
76608;SDS011;65501;53.936;27.540;2022-12-07T14:09:55;10.02;;;6.80;;
76608;SDS011;65501;53.936;27.540;2022-12-07T14:12:25;9.88;;;6.60;;
76608;SDS011;65501;53.936;27.540;2022-12-07T14:14:52;9.07;;;6.05;;
76608;SDS011;65501;53.936;27.540;2022-12-07T14:17:21;8.38;;;6.07;;
76608;SDS011;65501;53.936;27.540;2022-12-07T14:19:55;10.50;;;6.47;;
76608;SDS011;65501;53.936;27.540;2022-12-07T14:22:29;11.55;;;6.88;;
76608;SDS011;65501;53.936;27.540;2022-12-07T14:25:43;8.95;;;5.93;;
76608;SDS011;65501;53.936;27.540;2022-12-07T14:27:58;9.48;;;5.85;;
76608;SDS011;65501;53.936;27.540;2022-12-07T14:30:29;9.63;;;6.00;;
76608;SDS011;65501;53.936;27.540;2022-12-07T14:32:59;10.38;;;7.82;;
76608;SDS011;65501;53.936;27.540;2022-12-07T14:35:26;9.63;;;6.93;;
76608;SDS011;65501;53.936;27.540;2022-12-07T14:37:51;8.00;;;5.90;;
76608;SDS011;65501;53.936;27.540;2022-12-07T14:40:18;10.70;;;6.18;;
76608;SDS011;65501;53.936;27.540;2022-12-07T14:42:46;8.80;;;5.70;;
76608;SDS011;65501;53.936;27.540;2022-12-07T14:45:13;9.52;;;6.22;;
76608;SDS011;65501;53.936;27.540;2022-12-07T14:47:42;10.60;;;6.22;;
76608;SDS011;65501;53.936;27.540;2022-12-07T14:50:10;8.23;;;5.82;;
76608;SDS011;65501;53.936;27.540;2022-12-07T14:52:37;10.77;;;6.85;;
76608;SDS011;65501;53.936;27.540;2022-12-07T14:55:04;8.07;;;6.00;;
76608;SDS011;65501;53.936;27.540;2022-12-07T14:57:29;10.40;;;6.35;;
76608;SDS011;65501;53.936;27.540;2022-12-07T14:59:55;11.10;;;6.20;;
76608;SDS011;65501;53.936;27.540;2022-12-07T15:02:20;8.82;;;5.55;;
76608;SDS011;65501;53.936;27.540;2022-12-07T15:04:46;10.65;;;6.07;;
76608;SDS011;65501;53.936;27.540;2022-12-07T15:07:18;9.88;;;5.90;;
76608;SDS011;65501;53.936;27.540;2022-12-07T15:09:45;11.30;;;6.72;;
76608;SDS011;65501;53.936;27.540;2022-12-07T15:12:10;8.52;;;6.15;;
76608;SDS011;65501;53.936;27.540;2022-12-07T15:14:36;8.57;;;7.20;;
76608;SDS011;65501;53.936;27.540;2022-12-07T15:17:01;8.48;;;5.30;;
76608;SDS011;65501;53.936;27.540;2022-12-07T15:19:27;7.97;;;5.30;;
76608;SDS011;65501;53.936;27.540;2022-12-07T15:21:52;8.13;;;5.68;;
76608;SDS011;65501;53.936;27.540;2022-12-07T15:24:18;9.07;;;6.00;;
76608;SDS011;65501;53.936;27.540;2022-12-07T15:26:44;8.73;;;6.93;;
76608;SDS011;65501;53.936;27.540;2022-12-07T15:29:10;8.15;;;5.38;;
76608;SDS011;65501;53.936;27.540;2022-12-07T15:31:36;9.43;;;5.70;;
76608;SDS011;65501;53.936;27.540;2022-12-07T15:34:02;8.55;;;6.15;;
76608;SDS011;65501;53.936;27.540;2022-12-07T15:36:28;9.70;;;6.45;;
76608;SDS011;65501;53.936;27.540;2022-12-07T15:38:56;8.32;;;5.85;;
76608;SDS011;65501;53.936;27.540;2022-12-07T15:41:21;9.88;;;6.53;;
76608;SDS011;65501;53.936;27.540;2022-12-07T15:43:47;8.55;;;5.95;;
76608;SDS011;65501;53.936;27.540;2022-12-07T15:46:32;8.50;;;5.35;;
76608;SDS011;65501;53.936;27.540;2022-12-07T15:48:59;9.75;;;6.43;;
76608;SDS011;65501;53.936;27.540;2022-12-07T15:51:25;8.70;;;6.07;;
76608;SDS011;65501;53.936;27.540;2022-12-07T15:53:51;8.07;;;5.97;;
76608;SDS011;65501;53.936;27.540;2022-12-07T15:56:17;7.40;;;5.05;;
76608;SDS011;65501;53.936;27.540;2022-12-07T15:58:42;9.13;;;6.05;;
76608;SDS011;65501;53.936;27.540;2022-12-07T16:01:11;8.85;;;5.43;;
76608;SDS011;65501;53.936;27.540;2022-12-07T16:06:06;7.22;;;5.10;;
76608;SDS011;65501;53.936;27.540;2022-12-07T16:08:32;7.15;;;6.00;;
76608;SDS011;65501;53.936;27.540;2022-12-07T16:10:57;8.50;;;5.55;;
76608;SDS011;65501;53.936;27.540;2022-12-07T16:13:23;7.63;;;5.10;;
76608;SDS011;65501;53.936;27.540;2022-12-07T16:15:49;9.20;;;5.65;;
76608;SDS011;65501;53.936;27.540;2022-12-07T16:18:15;7.80;;;5.70;;
76608;SDS011;65501;53.936;27.540;2022-12-07T16:20:41;8.00;;;5.78;;
76608;SDS011;65501;53.936;27.540;2022-12-07T16:23:06;8.25;;;5.57;;
76608;SDS011;65501;53.936;27.540;2022-12-07T16:25:32;9.50;;;6.47;;
76608;SDS011;65501;53.936;27.540;2022-12-07T16:27:58;8.02;;;5.15;;
76608;SDS011;65501;53.936;27.540;2022-12-07T16:30:23;8.73;;;5.88;;
76608;SDS011;65501;53.936;27.540;2022-12-07T16:32:50;8.05;;;5.25;;
76608;SDS011;65501;53.936;27.540;2022-12-07T16:35:16;9.40;;;5.60;;
76608;SDS011;65501;53.936;27.540;2022-12-07T16:37:42;8.48;;;5.38;;
76608;SDS011;65501;53.936;27.540;2022-12-07T16:40:08;8.13;;;5.30;;
76608;SDS011;65501;53.936;27.540;2022-12-07T16:42:34;8.20;;;5.55;;
76608;SDS011;65501;53.936;27.540;2022-12-07T16:45:01;8.45;;;4.90;;
76608;SDS011;65501;53.936;27.540;2022-12-07T16:47:26;7.47;;;4.93;;
76608;SDS011;65501;53.936;27.540;2022-12-07T16:49:52;7.45;;;5.68;;
76608;SDS011;65501;53.936;27.540;2022-12-07T16:52:18;7.78;;;5.65;;
76608;SDS011;65501;53.936;27.540;2022-12-07T16:54:45;8.80;;;5.63;;
76608;SDS011;65501;53.936;27.540;2022-12-07T16:57:10;8.25;;;5.47;;
76608;SDS011;65501;53.936;27.540;2022-12-07T16:59:36;9.10;;;5.20;;
76608;SDS011;65501;53.936;27.540;2022-12-07T17:02:02;8.32;;;5.25;;
76608;SDS011;65501;53.936;27.540;2022-12-07T17:04:28;6.53;;;4.97;;
76608;SDS011;65501;53.936;27.540;2022-12-07T17:06:54;7.75;;;4.85;;
76608;SDS011;65501;53.936;27.540;2022-12-07T17:09:20;7.30;;;4.47;;